createdAt,value
2023-02-17T00:02:36.447Z,101856.09
2023-02-17T00:07:39.538Z,101875.06
2023-02-17T00:12:41.723Z,101850.34
2023-02-17T00:17:43.816Z,101870.94
2023-02-17T00:22:46.070Z,101873.53
2023-02-17T00:27:48.176Z,101861.66
2023-02-17T00:32:50.347Z,101837.28
2023-02-17T00:37:52.484Z,101864.06
2023-02-17T00:42:55.218Z,101838.75
2023-02-17T00:47:57.368Z,101816.47
2023-02-17T00:52:59.484Z,101857.91
2023-02-17T00:58:01.878Z,101824.84
2023-02-17T01:03:04.438Z,101850.63
2023-02-17T01:08:06.686Z,101824.00
2023-02-17T01:13:09.671Z,101766.25
2023-02-17T01:18:12.278Z,101826.31
2023-02-17T01:23:15.518Z,101834.16
2023-02-17T01:28:21.568Z,101808.03
2023-02-17T01:33:23.789Z,101761.66
2023-02-17T01:38:25.913Z,101814.53
2023-02-17T01:43:28.920Z,101805.22
2023-02-17T01:48:41.105Z,101789.75
2023-02-17T01:54:12.506Z,101811.66
2023-02-17T01:59:22.555Z,101790.47
2023-02-17T02:04:28.920Z,101766.75
2023-02-17T02:09:39.108Z,101800.16
2023-02-17T02:14:41.347Z,101781.97
2023-02-17T02:20:01.964Z,101799.78
2023-02-17T02:25:22.285Z,101792.97
2023-02-17T02:30:27.176Z,101792.97
2023-02-17T02:35:47.178Z,101795.91
2023-02-17T02:41:07.581Z,101794.91
2023-02-17T02:46:10.159Z,101797.41
2023-02-17T02:51:15.173Z,101790.16
2023-02-17T02:56:37.004Z,101781.81
2023-02-17T03:01:45.789Z,101792.72
2023-02-17T03:07:00.650Z,101786.13
2023-02-17T03:12:03.365Z,101745.31
2023-02-17T03:17:05.972Z,101764.19
2023-02-17T03:22:15.968Z,101764.66
2023-02-17T03:27:18.222Z,101758.38
2023-02-17T03:32:20.827Z,101762.09
2023-02-17T03:37:23.003Z,101767.28
2023-02-17T03:42:26.100Z,101783.50
2023-02-17T03:47:28.302Z,101769.78
2023-02-17T03:52:30.563Z,101790.28
2023-02-17T03:57:33.986Z,101765.06
2023-02-17T04:02:36.657Z,101785.66
2023-02-17T04:07:38.976Z,101781.50
2023-02-17T04:12:41.444Z,101803.72
2023-02-17T04:17:43.645Z,101790.16
2023-02-17T04:22:46.641Z,101809.91
2023-02-17T04:27:48.862Z,101774.75
2023-02-17T04:32:51.011Z,101753.56
2023-02-17T04:37:54.139Z,101781.53
2023-02-17T04:42:56.250Z,101769.13
2023-02-17T04:47:58.587Z,101818.50
2023-02-17T04:53:00.886Z,101787.63
2023-02-17T04:58:03.231Z,101769.78
2023-02-17T05:03:05.439Z,101785.56
2023-02-17T05:08:07.643Z,101760.78
2023-02-17T05:13:10.000Z,101809.53
2023-02-17T05:18:14.050Z,101809.22
2023-02-17T05:23:16.190Z,101770.50
2023-02-17T05:28:18.854Z,101809.75
2023-02-17T05:33:21.036Z,101825.22
2023-02-17T05:38:23.298Z,101797.84
2023-02-17T05:43:25.676Z,101833.84
2023-02-17T05:48:28.091Z,101780.09
2023-02-17T05:53:30.570Z,101833.63
2023-02-17T05:58:32.752Z,101821.84
2023-02-17T06:03:35.098Z,101851.09
2023-02-17T06:08:37.949Z,101856.13
2023-02-17T06:13:40.319Z,101817.44
2023-02-17T06:18:42.907Z,101875.22
2023-02-17T06:23:45.494Z,101839.81
2023-02-17T06:28:47.716Z,101856.50
2023-02-17T06:33:49.923Z,101873.28
2023-02-17T06:38:52.303Z,101867.44
2023-02-17T06:43:54.546Z,101841.91
2023-02-17T06:48:56.966Z,101869.53
2023-02-17T06:53:59.134Z,101871.81
2023-02-17T06:59:02.044Z,101878.50
2023-02-17T07:04:04.333Z,101870.84
2023-02-17T07:09:06.654Z,101858.94
2023-02-17T07:14:08.816Z,101859.38
2023-02-17T07:19:10.947Z,101867.63
2023-02-17T07:24:13.616Z,101860.03
2023-02-17T07:29:19.388Z,101888.53
2023-02-17T07:34:21.825Z,101879.16
2023-02-17T07:39:24.018Z,101894.38
2023-02-17T07:44:26.190Z,101883.88
2023-02-17T07:49:28.747Z,101896.19
2023-02-17T07:54:30.953Z,101879.03
2023-02-17T07:59:33.353Z,101901.91
2023-02-17T08:04:35.688Z,101868.88
2023-02-17T08:09:56.384Z,101864.41
2023-02-17T08:14:58.522Z,101894.09
2023-02-17T08:20:07.971Z,101835.50
2023-02-17T08:25:10.838Z,101866.78
2023-02-17T08:30:13.478Z,101888.38
2023-02-17T08:35:16.101Z,101896.41
2023-02-17T08:40:19.578Z,101772.03
2023-02-17T08:45:21.943Z,101904.38
2023-02-17T08:50:24.402Z,101887.28
2023-02-17T08:55:26.728Z,101887.94
2023-02-17T09:00:29.110Z,101883.31
2023-02-17T09:05:32.736Z,101859.75
2023-02-17T09:10:34.986Z,101850.69
2023-02-17T09:15:37.744Z,101864.25
2023-02-17T09:20:40.121Z,101866.06
2023-02-17T09:25:42.638Z,101854.44
2023-02-17T09:30:45.036Z,101850.03
2023-02-17T09:35:47.381Z,101830.31
2023-02-17T09:40:50.963Z,101820.63
2023-02-17T09:46:08.314Z,101793.34
2023-02-17T09:51:20.555Z,101835.22
2023-02-17T09:56:41.456Z,101711.06
2023-02-17T10:01:45.385Z,101798.63
2023-02-17T10:06:57.986Z,101785.06
2023-02-17T10:12:14.546Z,101791.59
2023-02-17T10:17:23.977Z,101695.97
2023-02-17T10:22:27.558Z,101753.97
2023-02-17T10:27:43.052Z,101758.00
2023-02-17T10:33:10.420Z,101699.97
2023-02-17T10:38:21.706Z,101729.41
2023-02-17T10:43:30.291Z,101678.56
2023-02-17T10:48:48.467Z,101667.31
2023-02-17T10:54:02.072Z,101718.25
2023-02-17T10:59:28.769Z,101713.34
2023-02-17T11:04:42.684Z,101679.09
2023-02-17T11:09:54.446Z,101697.94
2023-02-17T11:14:57.285Z,101701.94
2023-02-17T11:20:27.197Z,101664.06
2023-02-17T11:25:32.784Z,101645.00
2023-02-17T11:30:36.882Z,101677.78
2023-02-17T11:35:51.629Z,101665.88
2023-02-17T11:40:55.063Z,101663.59
2023-02-17T11:46:23.651Z,101657.06
2023-02-17T11:52:04.004Z,101651.22
2023-02-17T11:57:15.372Z,101635.22
2023-02-17T12:02:21.616Z,101630.38
2023-02-17T12:07:55.565Z,101622.19
2023-02-17T12:13:15.952Z,101607.81
2023-02-17T12:18:27.038Z,101605.16
2023-02-17T12:23:49.397Z,101597.91
2023-02-17T12:29:08.279Z,101567.78
2023-02-17T12:34:13.276Z,101579.97
2023-02-17T12:39:48.458Z,101575.00
2023-02-17T12:44:56.179Z,101567.94
2023-02-17T12:50:16.337Z,101536.06
2023-02-17T12:55:26.103Z,101540.66
2023-02-17T13:00:34.113Z,101554.31
2023-02-17T13:05:39.696Z,101541.63
2023-02-17T13:10:42.102Z,101547.97
2023-02-17T13:15:46.937Z,101544.88
2023-02-17T13:20:58.222Z,101508.56
2023-02-17T13:26:20.994Z,101537.81
2023-02-17T13:31:27.486Z,101508.41
2023-02-17T13:36:29.650Z,101530.59
2023-02-17T13:41:48.996Z,101488.16
2023-02-17T13:46:52.334Z,101507.63
2023-02-17T13:51:55.763Z,101533.94
2023-02-17T13:56:58.300Z,101505.94
2023-02-17T14:02:00.712Z,101532.44
2023-02-17T14:07:05.517Z,101492.34
2023-02-17T14:12:17.462Z,101490.50
2023-02-17T14:17:33.259Z,101506.88
2023-02-17T14:22:38.028Z,101495.34
2023-02-17T14:27:50.476Z,101498.41
2023-02-17T14:33:02.075Z,101491.19
2023-02-17T14:38:22.404Z,101475.94
2023-02-17T14:43:25.244Z,101511.31
2023-02-17T14:48:28.157Z,101488.19
2023-02-17T14:53:33.575Z,101506.28
2023-02-17T14:58:36.247Z,101506.03
2023-02-17T15:03:38.447Z,101482.47
2023-02-17T15:08:41.095Z,101471.75
2023-02-17T15:13:43.213Z,101458.84
2023-02-17T15:18:48.221Z,101489.66
2023-02-17T15:23:50.602Z,101477.31
2023-02-17T15:28:53.085Z,101509.69
2023-02-17T15:34:00.214Z,101505.34
2023-02-17T15:39:02.502Z,101482.94
2023-02-17T15:44:06.324Z,101488.22
2023-02-17T15:49:11.763Z,101506.06
2023-02-17T15:54:15.907Z,101495.50
2023-02-17T15:59:27.204Z,101510.22
2023-02-17T16:04:29.533Z,101476.66
2023-02-17T16:09:31.830Z,101508.97
2023-02-17T16:14:36.766Z,101506.38
2023-02-17T16:19:38.945Z,101523.19
2023-02-17T16:24:41.309Z,101507.53
2023-02-17T16:29:43.739Z,101542.94
2023-02-17T16:34:45.976Z,101552.69
2023-02-17T16:39:48.110Z,101557.72
2023-02-17T16:44:50.699Z,101557.75
2023-02-17T16:49:53.186Z,101562.25
2023-02-17T16:54:55.404Z,101544.31
2023-02-17T16:59:57.685Z,101569.16
2023-02-17T17:04:59.811Z,101551.22
2023-02-17T17:10:15.836Z,101549.41
2023-02-17T17:15:20.186Z,101581.81
2023-02-17T17:20:30.322Z,101564.16
2023-02-17T17:25:35.145Z,101592.78
2023-02-17T17:30:37.682Z,101584.00
2023-02-17T17:35:39.974Z,101567.25
2023-02-17T17:40:50.873Z,101550.69
2023-02-17T17:45:53.421Z,101590.16
2023-02-17T17:50:55.607Z,101576.47
2023-02-17T17:55:57.962Z,101594.38
2023-02-17T18:01:02.048Z,101576.28
2023-02-17T18:06:05.880Z,101584.16
2023-02-17T18:11:09.074Z,101572.38
2023-02-17T18:16:11.560Z,101612.75
2023-02-17T18:21:14.073Z,101569.13
2023-02-17T18:26:17.058Z,101573.69
2023-02-17T18:31:20.008Z,101587.78
2023-02-17T18:36:25.661Z,101597.53
2023-02-17T18:41:33.214Z,101627.97
2023-02-17T18:46:36.385Z,101639.44
2023-02-17T18:51:38.686Z,101626.47
2023-02-17T18:56:40.897Z,101634.72
2023-02-17T19:01:43.634Z,101616.06
2023-02-17T19:06:45.959Z,101597.53
2023-02-17T19:11:48.200Z,101598.53
2023-02-17T19:16:50.356Z,101600.13
2023-02-17T19:21:53.483Z,101619.84
2023-02-17T19:26:55.827Z,101643.13
2023-02-17T19:32:03.021Z,101652.22
2023-02-17T19:37:05.812Z,101621.06
2023-02-17T19:42:09.579Z,101604.53
2023-02-17T19:47:11.851Z,101650.44
2023-02-17T19:52:14.053Z,101600.03
2023-02-17T19:57:19.520Z,101625.38
2023-02-17T20:02:21.785Z,101654.22
2023-02-17T20:07:23.914Z,101621.19
2023-02-17T20:12:26.107Z,101620.81
2023-02-17T20:17:28.272Z,101634.19
2023-02-17T20:22:30.475Z,101643.22
2023-02-17T20:27:32.853Z,101650.53
2023-02-17T20:32:35.120Z,101669.38
2023-02-17T20:37:37.330Z,101630.16
2023-02-17T20:42:39.463Z,101598.06
2023-02-17T20:47:41.656Z,101538.41
2023-02-17T20:52:46.336Z,101550.34
2023-02-17T20:57:48.645Z,101539.13
2023-02-17T21:02:52.745Z,101550.06
2023-02-17T21:07:56.878Z,101562.38
2023-02-17T21:12:59.540Z,101526.53
2023-02-17T21:18:02.083Z,101670.75
2023-02-17T21:28:21.041Z,101567.59
2023-02-17T21:33:23.594Z,101633.22
2023-02-17T21:38:25.810Z,101664.56
2023-02-17T21:43:46.700Z,101658.50
2023-02-17T21:48:53.478Z,101625.84
2023-02-17T21:53:56.080Z,101647.72
2023-02-17T21:58:58.298Z,101652.13
2023-02-17T22:04:01.562Z,101648.72
2023-02-17T22:09:07.302Z,101494.47
2023-02-17T22:14:16.071Z,101595.16
2023-02-17T22:19:21.056Z,101562.47
2023-02-17T22:24:27.418Z,101584.38
2023-02-17T22:29:29.678Z,101638.75
2023-02-17T22:34:32.042Z,101645.63
2023-02-17T22:39:34.324Z,101566.06
2023-02-17T22:44:36.970Z,101654.91
2023-02-17T22:49:39.191Z,101622.81
2023-02-17T22:54:41.441Z,101647.13
2023-02-17T22:59:43.666Z,101651.97
2023-02-17T23:04:46.039Z,101642.94
2023-02-17T23:09:48.315Z,101675.59
2023-02-17T23:14:50.529Z,101675.59
2023-02-17T23:19:52.771Z,101629.41
2023-02-17T23:24:54.945Z,101658.09
2023-02-17T23:29:57.749Z,101654.75
2023-02-17T23:35:00.036Z,101588.25
2023-02-17T23:40:02.586Z,101620.75
2023-02-17T23:45:05.290Z,101658.44
2023-02-17T23:50:08.371Z,101570.47
2023-02-17T23:55:10.790Z,101677.16
